sensor_id;sensor_type;location;lat;lon;timestamp;P1;P2;P0
72307;PMS5003;60257;42.638;23.376;2022-09-09T00:01:51;38.67;35.00;22.00
72307;PMS5003;60257;42.638;23.376;2022-09-09T00:04:30;34.67;33.33;21.33
72307;PMS5003;60257;42.638;23.376;2022-09-09T00:07:01;36.67;33.00;22.00
72307;PMS5003;60257;42.638;23.376;2022-09-09T00:14:55;36.33;33.67;20.33
72307;PMS5003;60257;42.638;23.376;2022-09-09T00:19:56;36.67;34.00;22.00
72307;PMS5003;60257;42.638;23.376;2022-09-09T00:22:30;37.00;34.00;22.00
72307;PMS5003;60257;42.638;23.376;2022-09-09T00:25:01;39.67;35.00;24.67
72307;PMS5003;60257;42.638;23.376;2022-09-09T00:32:36;37.00;33.67;23.00
72307;PMS5003;60257;42.638;23.376;2022-09-09T00:35:04;37.00;34.33;21.00
72307;PMS5003;60257;42.638;23.376;2022-09-09T00:37:50;38.00;35.33;22.67
72307;PMS5003;60257;42.638;23.376;2022-09-09T00:41:06;35.00;34.00;22.33
72307;PMS5003;60257;42.638;23.376;2022-09-09T00:43:30;31.33;31.33;19.00
72307;PMS5003;60257;42.638;23.376;2022-09-09T00:46:16;34.67;33.67;23.00
72307;PMS5003;60257;42.638;23.376;2022-09-09T00:54:40;29.33;28.33;19.67
72307;PMS5003;60257;42.638;23.376;2022-09-09T01:05:39;34.33;33.00;22.67
72307;PMS5003;60257;42.638;23.376;2022-09-09T01:08:24;39.33;37.00;24.00
72307;PMS5003;60257;42.638;23.376;2022-09-09T01:11:22;36.00;34.00;23.00
72307;PMS5003;60257;42.638;23.376;2022-09-09T01:13:56;33.33;33.33;21.33
72307;PMS5003;60257;42.638;23.376;2022-09-09T01:16:31;32.33;31.00;21.00
72307;PMS5003;60257;42.638;23.376;2022-09-09T01:18:57;29.33;29.33;19.00
72307;PMS5003;60257;42.638;23.376;2022-09-09T01:24:25;35.00;31.00;21.00
72307;PMS5003;60257;42.638;23.376;2022-09-09T01:27:02;36.33;35.00;24.67
72307;PMS5003;60257;42.638;23.376;2022-09-09T01:29:30;36.00;33.67;23.00
72307;PMS5003;60257;42.638;23.376;2022-09-09T01:34:24;32.33;31.00;22.00
72307;PMS5003;60257;42.638;23.376;2022-09-09T01:37:07;36.33;32.00;24.33
72307;PMS5003;60257;42.638;23.376;2022-09-09T01:39:35;39.33;34.67;22.00
72307;PMS5003;60257;42.638;23.376;2022-09-09T01:42:03;36.33;32.33;22.67
72307;PMS5003;60257;42.638;23.376;2022-09-09T01:44:31;43.00;38.00;25.33
72307;PMS5003;60257;42.638;23.376;2022-09-09T01:46:57;27.00;27.00;17.00
72307;PMS5003;60257;42.638;23.376;2022-09-09T01:49:23;30.67;30.67;23.00
72307;PMS5003;60257;42.638;23.376;2022-09-09T01:51:49;36.00;32.67;22.67
72307;PMS5003;60257;42.638;23.376;2022-09-09T01:54:18;38.00;35.00;23.00
72307;PMS5003;60257;42.638;23.376;2022-09-09T02:02:43;39.00;37.33;23.67
72307;PMS5003;60257;42.638;23.376;2022-09-09T02:07:58;34.67;33.33;23.00
72307;PMS5003;60257;42.638;23.376;2022-09-09T02:10:42;33.00;32.00;21.00
72307;PMS5003;60257;42.638;23.376;2022-09-09T02:13:14;38.33;34.33;22.67
72307;PMS5003;60257;42.638;23.376;2022-09-09T02:15:46;33.67;30.33;20.00
72307;PMS5003;60257;42.638;23.376;2022-09-09T02:18:35;40.67;36.67;25.33
72307;PMS5003;60257;42.638;23.376;2022-09-09T02:21:08;40.33;37.00;25.00
72307;PMS5003;60257;42.638;23.376;2022-09-09T02:23:36;34.67;32.00;23.00
72307;PMS5003;60257;42.638;23.376;2022-09-09T02:26:04;33.00;32.00;21.67
72307;PMS5003;60257;42.638;23.376;2022-09-09T02:28:33;33.00;31.00;22.67
72307;PMS5003;60257;42.638;23.376;2022-09-09T02:31:01;37.33;34.33;24.00
72307;PMS5003;60257;42.638;23.376;2022-09-09T02:33:29;31.00;30.67;23.00
72307;PMS5003;60257;42.638;23.376;2022-09-09T02:36:02;32.67;32.00;20.00
72307;PMS5003;60257;42.638;23.376;2022-09-09T02:38:33;37.33;34.00;21.67
72307;PMS5003;60257;42.638;23.376;2022-09-09T02:41:04;36.33;34.00;22.33
72307;PMS5003;60257;42.638;23.376;2022-09-09T02:43:33;32.00;32.00;21.67
72307;PMS5003;60257;42.638;23.376;2022-09-09T02:48:36;41.00;36.67;23.67
72307;PMS5003;60257;42.638;23.376;2022-09-09T02:51:19;47.00;37.33;24.00
72307;PMS5003;60257;42.638;23.376;2022-09-09T02:57:17;33.33;32.33;22.00
72307;PMS5003;60257;42.638;23.376;2022-09-09T02:59:47;35.00;32.67;21.33
72307;PMS5003;60257;42.638;23.376;2022-09-09T03:02:14;21.67;20.67;19.00
72307;PMS5003;60257;42.638;23.376;2022-09-09T03:04:40;38.00;35.33;23.67
72307;PMS5003;60257;42.638;23.376;2022-09-09T03:07:09;35.67;34.00;24.00
72307;PMS5003;60257;42.638;23.376;2022-09-09T03:09:35;40.00;36.33;25.67
72307;PMS5003;60257;42.638;23.376;2022-09-09T03:12:01;37.67;32.67;19.67
72307;PMS5003;60257;42.638;23.376;2022-09-09T03:14:27;45.33;39.67;26.00
72307;PMS5003;60257;42.638;23.376;2022-09-09T03:16:52;42.67;36.67;22.00
72307;PMS5003;60257;42.638;23.376;2022-09-09T03:19:19;42.00;37.00;24.00
72307;PMS5003;60257;42.638;23.376;2022-09-09T03:21:45;48.67;40.33;27.33
72307;PMS5003;60257;42.638;23.376;2022-09-09T03:24:12;42.00;37.00;26.00
72307;PMS5003;60257;42.638;23.376;2022-09-09T03:26:39;42.67;37.33;24.67
72307;PMS5003;60257;42.638;23.376;2022-09-09T03:29:06;49.67;39.33;26.67
72307;PMS5003;60257;42.638;23.376;2022-09-09T03:31:32;44.67;38.00;25.00
72307;PMS5003;60257;42.638;23.376;2022-09-09T03:33:59;41.00;37.33;25.00
72307;PMS5003;60257;42.638;23.376;2022-09-09T03:36:25;51.33;42.33;28.67
72307;PMS5003;60257;42.638;23.376;2022-09-09T03:38:51;46.67;39.00;26.00
72307;PMS5003;60257;42.638;23.376;2022-09-09T03:41:19;49.00;40.67;26.33
72307;PMS5003;60257;42.638;23.376;2022-09-09T03:43:44;41.33;37.33;24.33
72307;PMS5003;60257;42.638;23.376;2022-09-09T03:46:10;48.33;40.67;27.00
72307;PMS5003;60257;42.638;23.376;2022-09-09T03:48:35;51.33;41.33;25.33
72307;PMS5003;60257;42.638;23.376;2022-09-09T03:51:01;43.33;38.00;25.00
72307;PMS5003;60257;42.638;23.376;2022-09-09T03:53:28;45.67;38.00;26.00
72307;PMS5003;60257;42.638;23.376;2022-09-09T03:55:55;43.00;37.00;26.33
72307;PMS5003;60257;42.638;23.376;2022-09-09T03:58:24;50.33;42.67;27.67
72307;PMS5003;60257;42.638;23.376;2022-09-09T04:03:21;52.00;43.33;28.67
72307;PMS5003;60257;42.638;23.376;2022-09-09T04:05:50;46.33;40.00;27.67
72307;PMS5003;60257;42.638;23.376;2022-09-09T04:08:17;48.67;41.67;28.00
72307;PMS5003;60257;42.638;23.376;2022-09-09T04:10:47;47.33;40.33;25.67
72307;PMS5003;60257;42.638;23.376;2022-09-09T04:13:14;48.67;41.00;27.33
72307;PMS5003;60257;42.638;23.376;2022-09-09T04:15:42;49.00;41.67;26.67
72307;PMS5003;60257;42.638;23.376;2022-09-09T04:18:08;45.00;38.00;26.67
72307;PMS5003;60257;42.638;23.376;2022-09-09T04:20:34;49.00;41.67;26.00
72307;PMS5003;60257;42.638;23.376;2022-09-09T04:23:00;46.00;39.00;26.33
72307;PMS5003;60257;42.638;23.376;2022-09-09T04:25:26;46.67;38.67;26.67
72307;PMS5003;60257;42.638;23.376;2022-09-09T04:27:55;52.67;43.00;28.67
72307;PMS5003;60257;42.638;23.376;2022-09-09T04:30:21;53.00;45.67;29.33
72307;PMS5003;60257;42.638;23.376;2022-09-09T04:32:47;48.33;40.67;28.33
72307;PMS5003;60257;42.638;23.376;2022-09-09T04:35:13;52.33;42.33;28.33
72307;PMS5003;60257;42.638;23.376;2022-09-09T04:37:38;40.67;37.33;24.00
72307;PMS5003;60257;42.638;23.376;2022-09-09T04:40:04;44.67;38.67;26.67
72307;PMS5003;60257;42.638;23.376;2022-09-09T04:42:30;44.00;40.33;27.67
72307;PMS5003;60257;42.638;23.376;2022-09-09T04:44:59;46.00;39.67;27.00
72307;PMS5003;60257;42.638;23.376;2022-09-09T04:47:25;51.33;44.00;27.00
72307;PMS5003;60257;42.638;23.376;2022-09-09T04:49:50;51.67;42.67;27.67
72307;PMS5003;60257;42.638;23.376;2022-09-09T04:52:17;49.67;41.00;28.67
72307;PMS5003;60257;42.638;23.376;2022-09-09T04:54:42;44.67;36.33;24.00
72307;PMS5003;60257;42.638;23.376;2022-09-09T04:57:10;43.67;38.00;25.00
72307;PMS5003;60257;42.638;23.376;2022-09-09T04:59:35;37.00;33.33;23.67
72307;PMS5003;60257;42.638;23.376;2022-09-09T05:02:01;38.33;35.33;22.00
72307;PMS5003;60257;42.638;23.376;2022-09-09T05:04:27;34.67;32.67;21.67
72307;PMS5003;60257;42.638;23.376;2022-09-09T05:06:53;36.00;35.67;24.67
72307;PMS5003;60257;42.638;23.376;2022-09-09T05:09:19;38.67;33.67;22.00
72307;PMS5003;60257;42.638;23.376;2022-09-09T05:11:44;39.67;35.33;24.00
72307;PMS5003;60257;42.638;23.376;2022-09-09T05:14:10;36.33;34.67;24.33
72307;PMS5003;60257;42.638;23.376;2022-09-09T05:16:37;33.33;32.00;21.00
72307;PMS5003;60257;42.638;23.376;2022-09-09T05:19:02;38.00;34.00;22.67
72307;PMS5003;60257;42.638;23.376;2022-09-09T05:21:28;35.67;33.00;23.00
72307;PMS5003;60257;42.638;23.376;2022-09-09T05:23:55;37.33;34.67;23.00
72307;PMS5003;60257;42.638;23.376;2022-09-09T05:26:21;34.00;32.33;22.67
72307;PMS5003;60257;42.638;23.376;2022-09-09T05:28:47;35.00;32.67;21.67
72307;PMS5003;60257;42.638;23.376;2022-09-09T05:31:14;46.33;38.33;27.00
72307;PMS5003;60257;42.638;23.376;2022-09-09T05:33:41;32.00;30.33;21.00
72307;PMS5003;60257;42.638;23.376;2022-09-09T05:36:11;29.67;29.67;21.00
72307;PMS5003;60257;42.638;23.376;2022-09-09T05:38:38;32.67;31.00;20.00
72307;PMS5003;60257;42.638;23.376;2022-09-09T05:41:05;35.33;33.67;22.00
72307;PMS5003;60257;42.638;23.376;2022-09-09T05:43:32;34.33;32.33;22.67
72307;PMS5003;60257;42.638;23.376;2022-09-09T05:45:59;33.33;32.00;22.33
72307;PMS5003;60257;42.638;23.376;2022-09-09T05:48:39;30.00;29.67;20.33
72307;PMS5003;60257;42.638;23.376;2022-09-09T05:51:07;31.67;31.67;19.67
72307;PMS5003;60257;42.638;23.376;2022-09-09T05:53:34;43.00;35.00;26.00
72307;PMS5003;60257;42.638;23.376;2022-09-09T05:56:04;28.33;28.00;20.00
72307;PMS5003;60257;42.638;23.376;2022-09-09T05:58:31;32.67;30.33;20.00
72307;PMS5003;60257;42.638;23.376;2022-09-09T06:01:00;28.00;27.33;20.00
72307;PMS5003;60257;42.638;23.376;2022-09-09T06:03:37;28.67;28.67;20.33
72307;PMS5003;60257;42.638;23.376;2022-09-09T06:06:05;30.50;30.00;21.75
72307;PMS5003;60257;42.638;23.376;2022-09-09T06:08:35;28.75;28.00;18.50
72307;PMS5003;60257;42.638;23.376;2022-09-09T06:11:07;29.00;29.00;21.00
72307;PMS5003;60257;42.638;23.376;2022-09-09T06:13:34;28.67;28.67;21.00
72307;PMS5003;60257;42.638;23.376;2022-09-09T06:16:02;27.33;27.33;20.00
72307;PMS5003;60257;42.638;23.376;2022-09-09T06:18:28;31.67;30.67;21.00
72307;PMS5003;60257;42.638;23.376;2022-09-09T06:20:57;34.33;32.33;23.33
72307;PMS5003;60257;42.638;23.376;2022-09-09T06:23:24;33.50;31.75;23.00
72307;PMS5003;60257;42.638;23.376;2022-09-09T06:25:50;32.50;30.25;21.00
72307;PMS5003;60257;42.638;23.376;2022-09-09T06:28:17;28.33;28.33;19.33
72307;PMS5003;60257;42.638;23.376;2022-09-09T06:30:42;34.33;33.00;21.33
72307;PMS5003;60257;42.638;23.376;2022-09-09T06:33:09;32.00;29.67;20.00
72307;PMS5003;60257;42.638;23.376;2022-09-09T06:35:35;28.25;26.75;20.25
72307;PMS5003;60257;42.638;23.376;2022-09-09T06:38:00;34.00;31.50;21.50
72307;PMS5003;60257;42.638;23.376;2022-09-09T06:40:26;28.75;28.75;20.25
72307;PMS5003;60257;42.638;23.376;2022-09-09T06:42:51;28.50;25.00;20.25
72307;PMS5003;60257;42.638;23.376;2022-09-09T06:45:17;33.00;31.00;21.67
72307;PMS5003;60257;42.638;23.376;2022-09-09T06:47:43;28.25;28.25;20.00
72307;PMS5003;60257;42.638;23.376;2022-09-09T06:50:09;32.67;30.33;20.67
72307;PMS5003;60257;42.638;23.376;2022-09-09T06:52:35;29.25;29.25;19.00
72307;PMS5003;60257;42.638;23.376;2022-09-09T06:55:01;33.75;32.75;23.00
72307;PMS5003;60257;42.638;23.376;2022-09-09T06:57:26;39.33;35.00;23.33
72307;PMS5003;60257;42.638;23.376;2022-09-09T06:59:52;38.33;34.00;24.00
72307;PMS5003;60257;42.638;23.376;2022-09-09T07:02:17;37.75;35.25;24.00
72307;PMS5003;60257;42.638;23.376;2022-09-09T07:04:43;37.00;31.00;22.00
72307;PMS5003;60257;42.638;23.376;2022-09-09T07:07:09;37.00;33.50;22.00
72307;PMS5003;60257;42.638;23.376;2022-09-09T07:09:37;41.33;35.67;24.33
72307;PMS5003;60257;42.638;23.376;2022-09-09T07:12:03;38.25;34.50;22.75
72307;PMS5003;60257;42.638;23.376;2022-09-09T07:14:29;35.25;33.00;21.25
72307;PMS5003;60257;42.638;23.376;2022-09-09T07:16:54;35.67;34.00;23.00
72307;PMS5003;60257;42.638;23.376;2022-09-09T07:19:20;32.50;32.50;22.00
72307;PMS5003;60257;42.638;23.376;2022-09-09T07:21:45;37.33;35.33;24.00
72307;PMS5003;60257;42.638;23.376;2022-09-09T07:24:11;33.75;33.25;22.25
72307;PMS5003;60257;42.638;23.376;2022-09-09T07:26:37;32.00;32.00;23.00
72307;PMS5003;60257;42.638;23.376;2022-09-09T07:29:04;33.50;30.75;21.50
72307;PMS5003;60257;42.638;23.376;2022-09-09T07:31:34;30.50;30.50;22.00
72307;PMS5003;60257;42.638;23.376;2022-09-09T07:34:02;31.00;29.00;20.75
72307;PMS5003;60257;42.638;23.376;2022-09-09T07:36:30;35.25;33.00;23.25
72307;PMS5003;60257;42.638;23.376;2022-09-09T07:39:02;35.00;31.00;20.75
72307;PMS5003;60257;42.638;23.376;2022-09-09T07:41:32;32.75;32.75;21.00
72307;PMS5003;60257;42.638;23.376;2022-09-09T07:44:06;36.75;31.50;22.00
72307;PMS5003;60257;42.638;23.376;2022-09-09T07:46:32;35.00;33.25;22.75
72307;PMS5003;60257;42.638;23.376;2022-09-09T07:48:59;30.25;27.75;20.25
72307;PMS5003;60257;42.638;23.376;2022-09-09T07:51:27;32.75;30.50;20.00
72307;PMS5003;60257;42.638;23.376;2022-09-09T07:53:56;31.50;29.75;21.25
72307;PMS5003;60257;42.638;23.376;2022-09-09T07:56:24;28.75;26.75;19.25
72307;PMS5003;60257;42.638;23.376;2022-09-09T07:58:52;27.00;27.00;20.00
72307;PMS5003;60257;42.638;23.376;2022-09-09T08:01:23;33.25;31.25;20.75
72307;PMS5003;60257;42.638;23.376;2022-09-09T08:04:00;24.00;24.00;15.00
72307;PMS5003;60257;42.638;23.376;2022-09-09T08:06:28;27.50;27.00;20.00
72307;PMS5003;60257;42.638;23.376;2022-09-09T08:08:55;24.00;23.75;17.75
72307;PMS5003;60257;42.638;23.376;2022-09-09T08:11:22;35.50;30.75;22.50
72307;PMS5003;60257;42.638;23.376;2022-09-09T08:13:50;29.00;27.75;18.50
72307;PMS5003;60257;42.638;23.376;2022-09-09T08:16:20;38.75;32.25;22.00
72307;PMS5003;60257;42.638;23.376;2022-09-09T08:18:50;27.25;27.25;19.50
72307;PMS5003;60257;42.638;23.376;2022-09-09T08:21:20;26.50;26.50;18.50
72307;PMS5003;60257;42.638;23.376;2022-09-09T08:23:49;27.50;27.50;18.75
72307;PMS5003;60257;42.638;23.376;2022-09-09T08:26:29;29.00;29.00;22.25
72307;PMS5003;60257;42.638;23.376;2022-09-09T08:28:57;23.50;22.25;16.75
72307;PMS5003;60257;42.638;23.376;2022-09-09T08:31:28;31.25;27.75;19.75
72307;PMS5003;60257;42.638;23.376;2022-09-09T08:33:56;24.25;24.00;17.00
72307;PMS5003;60257;42.638;23.376;2022-09-09T08:36:25;30.75;29.25;18.25
72307;PMS5003;60257;42.638;23.376;2022-09-09T08:38:53;20.25;18.50;13.00
72307;PMS5003;60257;42.638;23.376;2022-09-09T08:55:12;22.75;22.75;17.00
72307;PMS5003;60257;42.638;23.376;2022-09-09T08:57:47;20.25;19.00;15.25
72307;PMS5003;60257;42.638;23.376;2022-09-09T09:00:16;23.75;21.00;16.75
72307;PMS5003;60257;42.638;23.376;2022-09-09T09:02:47;24.25;24.25;17.00
72307;PMS5003;60257;42.638;23.376;2022-09-09T09:05:48;25.00;24.25;20.25
72307;PMS5003;60257;42.638;23.376;2022-09-09T09:11:25;24.75;24.50;16.25
72307;PMS5003;60257;42.638;23.376;2022-09-09T09:16:27;26.25;26.25;17.50
72307;PMS5003;60257;42.638;23.376;2022-09-09T09:19:08;28.75;27.00;18.75
72307;PMS5003;60257;42.638;23.376;2022-09-09T09:21:42;20.75;19.75;15.50
72307;PMS5003;60257;42.638;23.376;2022-09-09T09:26:47;30.25;28.50;20.50
72307;PMS5003;60257;42.638;23.376;2022-09-09T09:29:13;29.00;27.50;19.75
72307;PMS5003;60257;42.638;23.376;2022-09-09T09:31:53;25.00;25.00;17.25
72307;PMS5003;60257;42.638;23.376;2022-09-09T09:34:22;34.25;32.25;22.00
72307;PMS5003;60257;42.638;23.376;2022-09-09T09:36:52;29.00;26.25;19.00
72307;PMS5003;60257;42.638;23.376;2022-09-09T09:39:23;28.00;26.25;19.75
72307;PMS5003;60257;42.638;23.376;2022-09-09T09:41:53;29.25;29.25;20.25
72307;PMS5003;60257;42.638;23.376;2022-09-09T09:44:29;27.00;27.00;17.50
72307;PMS5003;60257;42.638;23.376;2022-09-09T09:47:13;26.00;24.50;17.25
72307;PMS5003;60257;42.638;23.376;2022-09-09T09:49:39;26.00;24.50;17.00
72307;PMS5003;60257;42.638;23.376;2022-09-09T09:52:15;25.25;23.00;16.25
72307;PMS5003;60257;42.638;23.376;2022-09-09T09:54:45;25.50;25.50;18.25
72307;PMS5003;60257;42.638;23.376;2022-09-09T09:57:12;28.00;28.00;19.75
72307;PMS5003;60257;42.638;23.376;2022-09-09T09:59:40;22.25;22.25;15.50
72307;PMS5003;60257;42.638;23.376;2022-09-09T10:02:13;28.25;27.25;21.25
72307;PMS5003;60257;42.638;23.376;2022-09-09T10:04:44;34.25;29.50;21.00
72307;PMS5003;60257;42.638;23.376;2022-09-09T10:07:20;29.50;27.50;19.75
72307;PMS5003;60257;42.638;23.376;2022-09-09T10:09:54;30.25;28.75;18.75
72307;PMS5003;60257;42.638;23.376;2022-09-09T10:15:58;26.75;26.25;18.50
72307;PMS5003;60257;42.638;23.376;2022-09-09T10:28:26;29.25;29.25;20.50
72307;PMS5003;60257;42.638;23.376;2022-09-09T10:36:45;28.50;28.50;20.00
72307;PMS5003;60257;42.638;23.376;2022-09-09T10:42:14;30.00;29.00;20.25
72307;PMS5003;60257;42.638;23.376;2022-09-09T10:55:09;38.25;36.50;24.25
72307;PMS5003;60257;42.638;23.376;2022-09-09T10:57:40;32.50;30.50;21.75
72307;PMS5003;60257;42.638;23.376;2022-09-09T11:00:16;37.50;34.75;24.50
72307;PMS5003;60257;42.638;23.376;2022-09-09T11:02:44;27.50;26.75;20.50
72307;PMS5003;60257;42.638;23.376;2022-09-09T11:05:28;31.00;30.25;20.25
72307;PMS5003;60257;42.638;23.376;2022-09-09T11:08:03;29.50;29.50;22.00
72307;PMS5003;60257;42.638;23.376;2022-09-09T11:13:24;28.75;24.75;19.00
72307;PMS5003;60257;42.638;23.376;2022-09-09T11:16:04;35.75;33.25;22.75
72307;PMS5003;60257;42.638;23.376;2022-09-09T11:18:38;29.00;27.50;20.50
72307;PMS5003;60257;42.638;23.376;2022-09-09T11:21:08;30.50;30.25;20.75
72307;PMS5003;60257;42.638;23.376;2022-09-09T11:23:44;37.75;36.75;25.00
72307;PMS5003;60257;42.638;23.376;2022-09-09T11:26:17;47.67;40.33;28.00
72307;PMS5003;60257;42.638;23.376;2022-09-09T11:28:58;29.75;28.50;20.25
72307;PMS5003;60257;42.638;23.376;2022-09-09T11:32:05;32.00;31.75;21.25
72307;PMS5003;60257;42.638;23.376;2022-09-09T11:38:21;29.75;26.50;17.00
72307;PMS5003;60257;42.638;23.376;2022-09-09T11:40:55;30.50;29.00;18.75
72307;PMS5003;60257;42.638;23.376;2022-09-09T11:43:38;30.00;27.25;20.50
72307;PMS5003;60257;42.638;23.376;2022-09-09T11:46:06;31.00;28.25;19.75
72307;PMS5003;60257;42.638;23.376;2022-09-09T11:51:27;31.00;29.50;20.75
72307;PMS5003;60257;42.638;23.376;2022-09-09T11:56:33;29.50;27.50;17.75
72307;PMS5003;60257;42.638;23.376;2022-09-09T11:59:30;27.00;27.00;19.00
72307;PMS5003;60257;42.638;23.376;2022-09-09T12:10:26;27.75;26.75;19.50
72307;PMS5003;60257;42.638;23.376;2022-09-09T12:13:18;38.50;37.00;26.00
72307;PMS5003;60257;42.638;23.376;2022-09-09T12:15:50;28.50;28.00;19.25
72307;PMS5003;60257;42.638;23.376;2022-09-09T12:18:24;32.50;32.00;22.00
72307;PMS5003;60257;42.638;23.376;2022-09-09T12:21:06;37.25;33.25;21.00
72307;PMS5003;60257;42.638;23.376;2022-09-09T12:23:47;38.50;35.75;24.50
72307;PMS5003;60257;42.638;23.376;2022-09-09T12:26:43;29.75;29.75;22.25
72307;PMS5003;60257;42.638;23.376;2022-09-09T12:34:40;35.00;33.00;22.50
72307;PMS5003;60257;42.638;23.376;2022-09-09T12:39:53;31.75;31.00;21.00
72307;PMS5003;60257;42.638;23.376;2022-09-09T12:42:21;29.75;28.75;20.75
72307;PMS5003;60257;42.638;23.376;2022-09-09T12:47:17;33.25;30.50;21.00
72307;PMS5003;60257;42.638;23.376;2022-09-09T12:49:45;30.00;28.25;20.00
72307;PMS5003;60257;42.638;23.376;2022-09-09T12:52:23;31.75;31.00;21.50
72307;PMS5003;60257;42.638;23.376;2022-09-09T12:54:52;29.00;28.50;20.25
72307;PMS5003;60257;42.638;23.376;2022-09-09T12:57:18;33.25;32.00;22.00
72307;PMS5003;60257;42.638;23.376;2022-09-09T12:59:47;25.00;24.25;19.50
72307;PMS5003;60257;42.638;23.376;2022-09-09T13:02:19;48.00;40.25;27.75
72307;PMS5003;60257;42.638;23.376;2022-09-09T13:04:45;31.25;30.75;21.50
72307;PMS5003;60257;42.638;23.376;2022-09-09T13:07:12;33.00;30.75;21.00
72307;PMS5003;60257;42.638;23.376;2022-09-09T13:09:39;39.50;38.25;26.50
72307;PMS5003;60257;42.638;23.376;2022-09-09T13:12:05;36.75;33.50;22.25
72307;PMS5003;60257;42.638;23.376;2022-09-09T13:14:38;28.50;26.75;18.75
72307;PMS5003;60257;42.638;23.376;2022-09-09T13:17:04;31.75;30.50;20.75
72307;PMS5003;60257;42.638;23.376;2022-09-09T13:19:33;40.25;34.50;25.25
72307;PMS5003;60257;42.638;23.376;2022-09-09T13:22:11;33.00;32.50;20.75
72307;PMS5003;60257;42.638;23.376;2022-09-09T13:24:45;34.75;33.50;22.00
72307;PMS5003;60257;42.638;23.376;2022-09-09T13:32:59;36.00;32.50;22.00
72307;PMS5003;60257;42.638;23.376;2022-09-09T13:35:29;34.00;33.00;21.25
72307;PMS5003;60257;42.638;23.376;2022-09-09T13:37:55;28.75;28.50;20.25
72307;PMS5003;60257;42.638;23.376;2022-09-09T13:40:21;33.00;31.75;22.75
72307;PMS5003;60257;42.638;23.376;2022-09-09T13:42:51;32.75;31.25;20.75
72307;PMS5003;60257;42.638;23.376;2022-09-09T13:45:19;36.25;33.00;21.75
72307;PMS5003;60257;42.638;23.376;2022-09-09T13:47:46;38.75;34.25;24.00
72307;PMS5003;60257;42.638;23.376;2022-09-09T13:50:26;34.50;31.25;21.50
72307;PMS5003;60257;42.638;23.376;2022-09-09T13:52:55;32.50;30.50;20.75
72307;PMS5003;60257;42.638;23.376;2022-09-09T13:55:26;34.50;33.25;23.00
72307;PMS5003;60257;42.638;23.376;2022-09-09T13:57:53;36.75;34.00;23.25
72307;PMS5003;60257;42.638;23.376;2022-09-09T14:00:24;27.25;27.00;20.25
72307;PMS5003;60257;42.638;23.376;2022-09-09T14:02:50;35.50;31.25;21.25
72307;PMS5003;60257;42.638;23.376;2022-09-09T14:05:16;31.00;29.75;21.75
72307;PMS5003;60257;42.638;23.376;2022-09-09T14:07:43;29.25;28.50;20.00
72307;PMS5003;60257;42.638;23.376;2022-09-09T14:10:09;34.75;31.50;21.75
72307;PMS5003;60257;42.638;23.376;2022-09-09T14:12:35;30.25;30.25;20.75
72307;PMS5003;60257;42.638;23.376;2022-09-09T14:15:02;31.00;31.00;21.00
72307;PMS5003;60257;42.638;23.376;2022-09-09T14:17:28;28.00;27.75;19.25
72307;PMS5003;60257;42.638;23.376;2022-09-09T14:19:55;28.75;24.00;19.25
72307;PMS5003;60257;42.638;23.376;2022-09-09T14:22:21;27.00;26.75;19.25
72307;PMS5003;60257;42.638;23.376;2022-09-09T14:24:47;31.50;30.75;20.00
72307;PMS5003;60257;42.638;23.376;2022-09-09T14:27:12;34.25;32.00;23.00
72307;PMS5003;60257;42.638;23.376;2022-09-09T14:29:38;34.25;31.75;23.00
72307;PMS5003;60257;42.638;23.376;2022-09-09T14:32:04;32.50;32.00;23.75
72307;PMS5003;60257;42.638;23.376;2022-09-09T14:34:29;29.25;28.00;20.00
72307;PMS5003;60257;42.638;23.376;2022-09-09T14:36:57;29.50;29.50;21.25
72307;PMS5003;60257;42.638;23.376;2022-09-09T14:39:23;23.50;23.50;16.25
72307;PMS5003;60257;42.638;23.376;2022-09-09T14:41:48;36.75;35.00;24.00
72307;PMS5003;60257;42.638;23.376;2022-09-09T14:44:14;42.75;35.25;22.00
72307;PMS5003;60257;42.638;23.376;2022-09-09T14:46:41;29.25;28.25;21.00
72307;PMS5003;60257;42.638;23.376;2022-09-09T14:49:08;39.25;33.50;23.25
72307;PMS5003;60257;42.638;23.376;2022-09-09T14:51:35;27.75;27.75;20.25
72307;PMS5003;60257;42.638;23.376;2022-09-09T14:54:01;32.75;32.00;21.75
72307;PMS5003;60257;42.638;23.376;2022-09-09T14:56:28;34.50;33.00;22.25
72307;PMS5003;60257;42.638;23.376;2022-09-09T14:58:56;35.00;34.50;23.50
72307;PMS5003;60257;42.638;23.376;2022-09-09T15:01:24;26.25;26.25;16.75
72307;PMS5003;60257;42.638;23.376;2022-09-09T15:03:55;32.00;30.75;22.00
72307;PMS5003;60257;42.638;23.376;2022-09-09T15:06:23;34.00;31.75;23.00
72307;PMS5003;60257;42.638;23.376;2022-09-09T15:08:50;29.00;29.00;20.50
72307;PMS5003;60257;42.638;23.376;2022-09-09T15:11:17;32.25;31.50;21.00
72307;PMS5003;60257;42.638;23.376;2022-09-09T15:13:43;29.50;29.50;20.50
72307;PMS5003;60257;42.638;23.376;2022-09-09T15:16:10;30.75;28.25;20.00
72307;PMS5003;60257;42.638;23.376;2022-09-09T15:18:38;38.25;35.25;24.50
72307;PMS5003;60257;42.638;23.376;2022-09-09T15:21:12;34.75;32.25;23.25
72307;PMS5003;60257;42.638;23.376;2022-09-09T15:23:38;35.00;30.75;23.00
72307;PMS5003;60257;42.638;23.376;2022-09-09T15:26:05;29.25;29.25;20.25
72307;PMS5003;60257;42.638;23.376;2022-09-09T15:28:31;36.00;34.00;23.25
72307;PMS5003;60257;42.638;23.376;2022-09-09T15:31:04;35.50;31.50;22.50
72307;PMS5003;60257;42.638;23.376;2022-09-09T15:33:46;33.75;33.75;21.75
72307;PMS5003;60257;42.638;23.376;2022-09-09T15:36:29;35.50;32.50;20.25
72307;PMS5003;60257;42.638;23.376;2022-09-09T15:38:55;37.00;34.00;22.25
72307;PMS5003;60257;42.638;23.376;2022-09-09T15:41:21;32.25;31.25;22.25
72307;PMS5003;60257;42.638;23.376;2022-09-09T15:43:51;30.75;28.00;21.00
72307;PMS5003;60257;42.638;23.376;2022-09-09T15:49:37;31.50;31.50;22.50
72307;PMS5003;60257;42.638;23.376;2022-09-09T15:51:57;34.75;32.25;22.50
72307;PMS5003;60257;42.638;23.376;2022-09-09T15:54:27;34.50;34.50;22.25
72307;PMS5003;60257;42.638;23.376;2022-09-09T15:56:56;29.75;29.75;20.50
72307;PMS5003;60257;42.638;23.376;2022-09-09T15:59:24;34.50;33.75;23.50
72307;PMS5003;60257;42.638;23.376;2022-09-09T16:01:52;29.00;27.50;19.00
72307;PMS5003;60257;42.638;23.376;2022-09-09T16:04:18;36.75;31.25;22.75
72307;PMS5003;60257;42.638;23.376;2022-09-09T16:06:54;27.25;27.25;16.00
72307;PMS5003;60257;42.638;23.376;2022-09-09T16:09:25;30.25;29.50;21.75
72307;PMS5003;60257;42.638;23.376;2022-09-09T16:11:51;34.25;32.00;21.25
72307;PMS5003;60257;42.638;23.376;2022-09-09T16:14:18;33.00;31.25;21.75